createdAt,value
2023-07-24T00:00:31.707Z,14.52
2023-07-24T00:02:58.479Z,14.47
2023-07-24T00:05:25.193Z,14.49
2023-07-24T00:07:51.972Z,14.63
2023-07-24T00:10:18.828Z,14.51
2023-07-24T00:12:45.488Z,14.53
2023-07-24T00:15:12.222Z,14.61
2023-07-24T00:17:38.985Z,14.28
2023-07-24T00:20:07.157Z,14.56
2023-07-24T00:22:33.897Z,14.34
2023-07-24T00:25:00.534Z,14.35
2023-07-24T00:27:27.223Z,14.46
2023-07-24T00:29:54.147Z,14.37
2023-07-24T00:32:21.539Z,14.56
2023-07-24T00:34:48.519Z,14.51
2023-07-24T00:37:15.516Z,14.51
2023-07-24T00:39:42.238Z,14.47
2023-07-24T00:42:08.953Z,14.49
2023-07-24T00:44:35.828Z,14.34
2023-07-24T00:47:02.856Z,14.22
2023-07-24T00:49:29.699Z,14.25
2023-07-24T00:51:56.444Z,14.02
2023-07-24T00:54:30.555Z,14.02
2023-07-24T00:56:57.392Z,14.01
2023-07-24T00:59:24.091Z,13.97
2023-07-24T01:01:51.270Z,13.93
2023-07-24T01:04:18.817Z,13.88
2023-07-24T01:06:45.646Z,13.94
2023-07-24T01:09:12.612Z,13.73
2023-07-24T01:11:48.666Z,13.81
2023-07-24T01:14:28.569Z,13.88
2023-07-24T01:16:57.506Z,13.84
2023-07-24T01:19:46.684Z,13.93
2023-07-24T01:22:22.394Z,14.08
2023-07-24T01:24:53.607Z,13.94
2023-07-24T01:27:26.904Z,14.00
2023-07-24T01:29:54.158Z,13.89
2023-07-24T01:32:21.464Z,13.92
2023-07-24T01:34:49.045Z,14.07
2023-07-24T01:37:17.685Z,14.02
2023-07-24T01:39:46.276Z,14.07
2023-07-24T01:42:14.289Z,14.08
2023-07-24T01:44:41.326Z,13.83
2023-07-24T01:47:08.113Z,13.96
2023-07-24T01:49:34.931Z,13.99
2023-07-24T01:52:01.643Z,14.00
2023-07-24T01:54:28.297Z,14.03
2023-07-24T01:56:54.954Z,13.84
2023-07-24T01:59:21.604Z,13.86
2023-07-24T02:01:48.633Z,13.90
2023-07-24T02:04:15.557Z,13.82
2023-07-24T02:06:42.415Z,13.63
2023-07-24T02:09:09.099Z,13.52
2023-07-24T02:11:35.917Z,13.63
2023-07-24T02:14:02.690Z,13.63
2023-07-24T02:16:29.503Z,13.67
2023-07-24T02:18:56.740Z,13.61
2023-07-24T02:21:23.628Z,13.52
2023-07-24T02:23:50.277Z,13.44
2023-07-24T02:26:16.991Z,13.46
2023-07-24T02:28:43.606Z,13.70
2023-07-24T02:31:10.471Z,13.70
2023-07-24T02:33:37.147Z,13.78
2023-07-24T02:36:04.037Z,13.81
2023-07-24T02:38:30.794Z,13.78
2023-07-24T02:40:58.016Z,13.67
2023-07-24T02:43:24.766Z,13.65
2023-07-24T02:45:51.412Z,13.64
2023-07-24T02:48:18.514Z,13.62
2023-07-24T02:50:45.212Z,13.48
2023-07-24T02:53:12.023Z,13.47
2023-07-24T02:55:44.386Z,13.49
2023-07-24T02:58:13.570Z,13.46
2023-07-24T03:00:40.805Z,13.39
2023-07-24T03:03:07.989Z,13.44
2023-07-24T03:05:38.025Z,13.45
2023-07-24T03:08:05.028Z,13.32
2023-07-24T03:10:31.697Z,13.37
2023-07-24T03:12:58.391Z,13.41
2023-07-24T03:15:25.058Z,13.44
2023-07-24T03:17:53.035Z,13.55
2023-07-24T03:20:20.940Z,13.55
2023-07-24T03:22:47.570Z,13.69
2023-07-24T03:25:14.695Z,13.67
2023-07-24T03:27:41.430Z,13.46
2023-07-24T03:30:08.588Z,13.25
2023-07-24T03:32:38.827Z,13.45
2023-07-24T03:35:07.402Z,13.45
2023-07-24T03:37:37.154Z,13.41
2023-07-24T03:40:05.270Z,13.39
2023-07-24T03:42:32.602Z,13.23
2023-07-24T03:44:59.653Z,13.45
2023-07-24T03:47:27.024Z,13.50
2023-07-24T03:49:53.839Z,13.36
2023-07-24T03:52:20.639Z,13.39
2023-07-24T03:54:47.651Z,13.21
2023-07-24T03:57:14.359Z,13.17
2023-07-24T03:59:41.028Z,13.44
2023-07-24T04:02:10.456Z,13.43
2023-07-24T04:04:38.324Z,13.38
2023-07-24T04:07:05.621Z,13.51
2023-07-24T04:09:32.527Z,13.53
2023-07-24T04:11:59.155Z,13.56
2023-07-24T04:14:25.761Z,13.67
2023-07-24T04:16:52.594Z,13.49
2023-07-24T04:19:19.289Z,13.70
2023-07-24T04:21:45.896Z,13.62
2023-07-24T04:24:12.603Z,13.67
2023-07-24T04:26:41.019Z,13.70
2023-07-24T04:29:08.187Z,13.76
2023-07-24T04:31:34.919Z,13.84
2023-07-24T04:34:01.652Z,13.88
2023-07-24T04:36:28.615Z,14.11
2023-07-24T04:38:55.428Z,14.27
2023-07-24T04:41:21.997Z,14.53
2023-07-24T04:43:48.661Z,14.76
2023-07-24T04:46:15.415Z,15.03
2023-07-24T04:48:42.231Z,15.16
2023-07-24T04:51:08.942Z,15.01
2023-07-24T04:53:35.743Z,14.93
2023-07-24T04:56:02.356Z,15.16
2023-07-24T04:58:29.040Z,15.18
2023-07-24T05:00:55.680Z,15.34
2023-07-24T05:03:22.446Z,15.53
2023-07-24T05:05:50.522Z,15.82
2023-07-24T05:08:17.149Z,15.82
2023-07-24T05:10:43.872Z,16.00
2023-07-24T05:13:13.443Z,16.10
2023-07-24T05:15:40.389Z,15.99
2023-07-24T05:18:07.060Z,15.92
2023-07-24T05:20:33.945Z,15.95
2023-07-24T05:23:01.244Z,15.96
2023-07-24T05:25:27.894Z,16.07
2023-07-24T05:27:54.511Z,16.14
2023-07-24T05:30:21.176Z,16.07
2023-07-24T05:32:48.319Z,15.76
2023-07-24T05:35:15.349Z,15.91
2023-07-24T05:37:42.388Z,16.09
2023-07-24T05:40:10.251Z,16.07
2023-07-24T05:42:42.555Z,16.02
2023-07-24T05:45:09.617Z,15.98
2023-07-24T05:47:36.166Z,16.06
2023-07-24T05:50:02.783Z,16.25
2023-07-24T05:52:29.885Z,16.48
2023-07-24T05:54:56.496Z,16.60
2023-07-24T05:57:23.133Z,16.39
2023-07-24T05:59:51.369Z,16.87
2023-07-24T06:02:18.016Z,16.71
2023-07-24T06:04:44.671Z,17.26
2023-07-24T06:07:11.302Z,17.37
2023-07-24T06:09:37.890Z,17.29
2023-07-24T06:12:04.912Z,17.64
2023-07-24T06:14:31.506Z,17.67
2023-07-24T06:16:58.263Z,18.17
2023-07-24T06:19:24.931Z,18.12
2023-07-24T06:21:51.727Z,18.60
2023-07-24T06:24:19.196Z,18.36
2023-07-24T06:26:46.368Z,18.52
2023-07-24T06:29:12.996Z,18.35
2023-07-24T06:31:39.589Z,18.32
2023-07-24T06:34:06.226Z,18.15
2023-07-24T06:36:33.054Z,18.12
2023-07-24T06:38:59.783Z,18.10
2023-07-24T06:41:26.510Z,17.90
2023-07-24T06:43:53.084Z,17.99
2023-07-24T06:46:19.737Z,18.03
2023-07-24T06:48:46.336Z,18.23
2023-07-24T06:51:12.973Z,18.02
2023-07-24T06:53:39.545Z,18.09
2023-07-24T06:56:06.140Z,18.33
2023-07-24T06:58:32.704Z,18.48
2023-07-24T07:00:59.376Z,18.71
2023-07-24T07:03:26.056Z,19.13
2023-07-24T07:05:52.643Z,19.45
2023-07-24T07:08:19.207Z,19.88
2023-07-24T07:10:45.981Z,19.59
2023-07-24T07:13:12.551Z,20.19
2023-07-24T07:15:39.242Z,20.32
2023-07-24T07:18:05.883Z,20.36
2023-07-24T07:20:32.445Z,21.07
2023-07-24T07:22:59.020Z,20.85
2023-07-24T07:25:25.546Z,21.07
2023-07-24T07:27:52.262Z,20.59
2023-07-24T07:30:18.827Z,21.09
2023-07-24T07:32:45.465Z,20.99
2023-07-24T07:35:12.076Z,21.18
2023-07-24T07:37:38.667Z,21.75
2023-07-24T07:40:06.002Z,22.26
2023-07-24T07:42:32.614Z,23.11
2023-07-24T07:44:59.182Z,23.13
2023-07-24T07:47:25.842Z,22.76
2023-07-24T07:49:52.431Z,23.23
2023-07-24T07:52:19.273Z,22.75
2023-07-24T07:54:49.784Z,22.90
2023-07-24T07:57:16.774Z,23.34
2023-07-24T07:59:43.508Z,23.91
2023-07-24T08:02:10.170Z,23.35
2023-07-24T08:04:36.772Z,23.24
2023-07-24T08:07:03.652Z,22.95
2023-07-24T08:09:30.328Z,23.04
2023-07-24T08:11:56.917Z,23.69
2023-07-24T08:14:23.523Z,24.15
2023-07-24T08:16:50.756Z,24.20
2023-07-24T08:19:17.402Z,24.76
2023-07-24T08:21:44.002Z,25.40
2023-07-24T08:24:10.554Z,26.43
2023-07-24T08:26:37.161Z,27.44
2023-07-24T08:29:03.894Z,28.28
2023-07-24T08:31:31.277Z,27.26
2023-07-24T08:33:57.948Z,27.34
2023-07-24T08:36:24.577Z,26.87
2023-07-24T08:38:51.164Z,26.98
2023-07-24T08:41:17.791Z,26.76
2023-07-24T08:43:44.680Z,26.21
2023-07-24T08:46:11.552Z,25.97
2023-07-24T08:48:40.832Z,25.54
2023-07-24T08:51:11.552Z,25.85
2023-07-24T08:53:40.544Z,24.58
2023-07-24T08:56:09.316Z,23.96
2023-07-24T08:58:36.594Z,23.59
2023-07-24T09:01:05.019Z,23.75
2023-07-24T09:03:33.321Z,24.01
2023-07-24T09:06:02.561Z,24.11
2023-07-24T09:08:37.214Z,24.72
2023-07-24T09:11:05.432Z,23.83
2023-07-24T09:13:32.801Z,24.30
2023-07-24T09:16:03.744Z,24.35
2023-07-24T09:18:44.415Z,24.32
2023-07-24T09:21:15.005Z,24.15
2023-07-24T09:23:44.834Z,23.96
2023-07-24T09:26:11.451Z,23.91
2023-07-24T09:28:38.087Z,23.70
2023-07-24T09:31:05.955Z,23.86
2023-07-24T09:33:38.387Z,23.75
2023-07-24T09:36:06.586Z,23.90
2023-07-24T09:38:33.256Z,24.27
2023-07-24T09:41:02.622Z,25.03
2023-07-24T09:43:39.639Z,25.19
2023-07-24T09:46:28.316Z,25.56
2023-07-24T09:51:30.363Z,25.27
2023-07-24T09:54:02.771Z,26.23
2023-07-24T09:56:43.167Z,26.60
2023-07-24T09:59:15.058Z,26.04
2023-07-24T10:01:41.853Z,26.26
2023-07-24T10:04:08.889Z,25.66
2023-07-24T10:06:35.818Z,25.85
2023-07-24T10:09:02.729Z,25.79
2023-07-24T10:11:29.584Z,25.42
2023-07-24T10:13:56.933Z,25.42
2023-07-24T10:16:23.565Z,25.24
2023-07-24T10:18:50.277Z,25.02
2023-07-24T10:21:17.541Z,24.88
2023-07-24T10:23:47.682Z,25.08
2023-07-24T10:26:17.022Z,25.33
2023-07-24T10:28:43.826Z,24.98
2023-07-24T10:31:26.828Z,24.97
2023-07-24T10:33:53.846Z,25.26
2023-07-24T10:36:23.377Z,25.46
2023-07-24T10:38:56.014Z,25.15
2023-07-24T10:41:22.700Z,25.08
2023-07-24T10:43:51.337Z,25.34
2023-07-24T10:46:20.483Z,25.28
2023-07-24T10:48:52.657Z,25.17
2023-07-24T10:51:22.130Z,24.82
2023-07-24T10:53:50.346Z,24.65
2023-07-24T10:56:18.007Z,24.73
2023-07-24T10:58:44.661Z,24.70
2023-07-24T11:01:15.507Z,24.46
2023-07-24T11:03:43.376Z,24.49
2023-07-24T11:06:15.984Z,24.54
2023-07-24T11:08:42.824Z,24.33
2023-07-24T11:11:09.878Z,24.22
2023-07-24T11:13:36.503Z,24.81
2023-07-24T11:16:08.121Z,24.01
2023-07-24T11:18:53.189Z,24.51
2023-07-24T11:21:21.116Z,24.37
2023-07-24T11:23:52.746Z,24.51
2023-07-24T11:26:27.801Z,24.96
2023-07-24T11:28:55.071Z,24.46
2023-07-24T11:31:22.148Z,24.64
2023-07-24T11:33:50.963Z,24.10
2023-07-24T11:36:17.750Z,24.66
2023-07-24T11:38:48.949Z,24.63
2023-07-24T11:41:17.492Z,24.43
2023-07-24T11:43:49.721Z,24.13
2023-07-24T11:46:27.912Z,24.16
2023-07-24T11:48:57.797Z,24.51
2023-07-24T11:51:28.005Z,24.51
2023-07-24T11:54:08.848Z,24.96
2023-07-24T11:56:35.911Z,24.94
2023-07-24T11:59:15.596Z,24.40
2023-07-24T12:01:46.528Z,24.13
2023-07-24T12:04:14.221Z,24.34
2023-07-24T12:06:41.179Z,24.28
2023-07-24T12:09:08.295Z,24.67
2023-07-24T12:11:41.771Z,24.27
2023-07-24T12:14:08.399Z,24.32
2023-07-24T12:16:36.146Z,24.13
2023-07-24T12:19:02.909Z,24.36
2023-07-24T12:21:29.983Z,24.59
2023-07-24T12:23:57.280Z,24.08
2023-07-24T12:26:26.310Z,24.59
2023-07-24T12:28:52.932Z,24.62
2023-07-24T12:31:19.531Z,23.79
2023-07-24T12:33:46.128Z,24.55
2023-07-24T12:36:12.683Z,24.42
2023-07-24T12:38:39.466Z,24.65
2023-07-24T12:41:06.131Z,24.65
2023-07-24T12:43:32.707Z,24.96
2023-07-24T12:45:59.380Z,24.54
2023-07-24T12:48:25.999Z,24.64
2023-07-24T12:50:53.072Z,24.72
2023-07-24T12:53:22.285Z,24.73
2023-07-24T12:55:51.200Z,24.77
2023-07-24T12:58:17.860Z,24.63
2023-07-24T13:00:44.478Z,24.58
2023-07-24T13:03:11.170Z,24.33
2023-07-24T13:05:38.933Z,24.46
2023-07-24T13:08:05.565Z,24.13
2023-07-24T13:10:32.232Z,23.86
2023-07-24T13:12:58.912Z,24.05
2023-07-24T13:15:25.553Z,24.15
2023-07-24T13:17:52.228Z,24.25
2023-07-24T13:20:18.999Z,24.37
2023-07-24T13:22:47.908Z,24.16
2023-07-24T13:25:14.683Z,24.45
2023-07-24T13:27:41.310Z,24.46
2023-07-24T13:30:08.313Z,24.68
2023-07-24T13:32:35.001Z,24.44
2023-07-24T13:35:01.572Z,24.77
2023-07-24T13:37:28.150Z,24.66
2023-07-24T13:39:54.751Z,24.49
2023-07-24T13:42:21.307Z,24.31
2023-07-24T13:44:47.905Z,24.60
2023-07-24T13:47:14.567Z,24.45
2023-07-24T13:49:41.098Z,24.49
2023-07-24T13:52:07.873Z,24.52
2023-07-24T13:54:36.831Z,23.89
2023-07-24T13:57:03.797Z,23.84
2023-07-24T13:59:30.438Z,24.18
2023-07-24T14:01:57.105Z,23.58
2023-07-24T14:04:23.829Z,23.96
2023-07-24T14:06:50.446Z,23.88
2023-07-24T14:09:17.289Z,24.32
2023-07-24T14:11:43.896Z,24.72
2023-07-24T14:14:10.482Z,24.30
2023-07-24T14:16:38.595Z,24.06
2023-07-24T14:19:07.320Z,24.20
2023-07-24T14:21:34.020Z,24.19
2023-07-24T14:24:00.722Z,24.18
2023-07-24T14:26:27.976Z,23.99
2023-07-24T14:28:56.732Z,23.87
2023-07-24T14:31:24.586Z,23.23
2023-07-24T14:33:51.406Z,22.94
2023-07-24T14:36:18.029Z,22.77
2023-07-24T14:38:44.568Z,22.77
2023-07-24T14:41:13.819Z,23.14
2023-07-24T14:43:43.628Z,23.24
2023-07-24T14:46:10.226Z,23.12
2023-07-24T14:48:36.801Z,22.98
2023-07-24T14:51:03.451Z,23.39
2023-07-24T14:53:30.082Z,23.08
2023-07-24T14:55:56.673Z,22.97
2023-07-24T14:58:23.421Z,22.54
2023-07-24T15:00:50.206Z,22.65
2023-07-24T15:03:16.884Z,22.83
2023-07-24T15:05:43.480Z,23.23
2023-07-24T15:08:10.034Z,23.10
2023-07-24T15:10:36.618Z,23.52
2023-07-24T15:13:03.221Z,23.14
2023-07-24T15:15:29.848Z,22.93
2023-07-24T15:17:57.404Z,23.10
2023-07-24T15:20:25.124Z,22.32
2023-07-24T15:22:54.188Z,22.28
2023-07-24T15:25:21.198Z,22.14
2023-07-24T15:27:48.049Z,21.98
2023-07-24T15:30:14.983Z,22.19
2023-07-24T15:32:41.585Z,21.94
2023-07-24T15:35:08.418Z,22.14
2023-07-24T15:37:35.053Z,22.08
2023-07-24T15:40:01.699Z,22.19
2023-07-24T15:42:28.508Z,22.30
2023-07-24T15:47:54.795Z,22.04
2023-07-24T15:50:29.210Z,21.33
2023-07-24T15:53:02.786Z,21.28
2023-07-24T15:55:29.863Z,21.42
2023-07-24T15:57:56.749Z,21.27
2023-07-24T16:00:27.722Z,21.21
2023-07-24T16:02:54.919Z,21.35
2023-07-24T16:05:23.164Z,21.09
2023-07-24T16:07:50.470Z,21.09
2023-07-24T16:10:20.317Z,21.08
2023-07-24T16:12:48.713Z,21.00
2023-07-24T16:24:01.443Z,20.04
2023-07-24T16:26:28.772Z,18.55
2023-07-24T16:28:55.576Z,16.77
2023-07-24T16:31:22.303Z,16.01
2023-07-24T16:33:49.945Z,15.72
2023-07-24T16:36:16.990Z,15.36
2023-07-24T16:38:43.743Z,15.94
2023-07-24T16:41:10.571Z,16.18
2023-07-24T16:43:41.580Z,16.25
2023-07-24T16:48:49.988Z,16.36
2023-07-24T16:51:17.607Z,16.66
2023-07-24T16:53:52.256Z,16.20
2023-07-24T16:56:19.839Z,16.17
2023-07-24T16:58:47.429Z,16.35
2023-07-24T17:01:17.432Z,16.24
2023-07-24T17:03:44.308Z,16.36
2023-07-24T17:06:11.157Z,16.51
2023-07-24T17:08:37.801Z,16.62
2023-07-24T17:11:04.636Z,16.06
2023-07-24T17:13:31.756Z,16.28
2023-07-24T17:15:58.498Z,16.15
2023-07-24T17:18:25.158Z,16.35
2023-07-24T17:20:52.035Z,16.47
2023-07-24T17:23:18.858Z,16.46
2023-07-24T17:25:49.374Z,16.65
2023-07-24T17:28:16.135Z,16.59
2023-07-24T17:30:43.013Z,16.56
2023-07-24T17:33:10.020Z,16.63
2023-07-24T17:35:36.788Z,16.39
2023-07-24T17:38:05.472Z,16.39
2023-07-24T17:40:34.678Z,16.34
2023-07-24T17:43:01.665Z,16.58
2023-07-24T17:45:28.724Z,16.53
2023-07-24T17:47:55.409Z,16.50
2023-07-24T17:50:24.542Z,16.53
2023-07-24T17:52:59.788Z,16.61
2023-07-24T17:55:28.973Z,16.66
2023-07-24T17:57:55.851Z,16.48
2023-07-24T18:00:23.548Z,16.51
2023-07-24T18:02:53.319Z,16.60
2023-07-24T18:05:21.841Z,16.59
2023-07-24T18:07:52.665Z,16.63
2023-07-24T18:10:21.394Z,16.34
2023-07-24T18:12:50.103Z,16.45
2023-07-24T18:15:16.939Z,16.62
2023-07-24T18:17:46.098Z,16.69
2023-07-24T18:20:13.011Z,16.53
2023-07-24T18:26:47.915Z,16.27
2023-07-24T18:34:25.541Z,16.32
2023-07-24T18:38:15.789Z,16.11
2023-07-24T18:48:23.181Z,16.25
2023-07-24T19:04:53.152Z,16.39
2023-07-24T20:41:40.850Z,14.92
2023-07-24T20:44:07.846Z,14.88
2023-07-24T20:46:34.795Z,14.82
2023-07-24T20:49:01.755Z,14.77
2023-07-24T20:51:29.013Z,14.61
2023-07-24T20:53:59.827Z,14.50
2023-07-24T20:56:27.021Z,14.41
2023-07-24T20:58:53.956Z,14.32
2023-07-24T21:01:24.301Z,14.25
2023-07-24T21:03:55.494Z,14.19
2023-07-24T21:06:22.468Z,14.08
2023-07-24T21:08:53.041Z,13.82
2023-07-24T21:11:26.898Z,13.95
2023-07-24T21:14:20.681Z,13.92
2023-07-24T21:17:02.509Z,13.77
2023-07-24T21:19:36.568Z,13.76
2023-07-24T21:22:03.750Z,13.71
2023-07-24T21:24:30.715Z,13.62
2023-07-24T21:26:57.518Z,13.56
2023-07-24T21:29:24.318Z,13.46
2023-07-24T21:31:51.410Z,13.44
2023-07-24T21:34:20.338Z,13.34
2023-07-24T21:36:47.231Z,13.28
2023-07-24T21:39:14.471Z,13.26
2023-07-24T21:41:48.395Z,13.21
2023-07-24T21:44:15.886Z,13.22
2023-07-24T21:46:53.603Z,13.21
2023-07-24T21:49:38.327Z,13.11
2023-07-24T21:52:12.736Z,13.02
2023-07-24T21:54:50.383Z,12.91
2023-07-24T21:57:19.409Z,12.93
2023-07-24T21:59:48.368Z,12.94
2023-07-24T22:02:23.554Z,12.85
2023-07-24T22:05:06.005Z,12.83
2023-07-24T22:07:33.691Z,12.76
2023-07-24T22:12:54.180Z,12.74
2023-07-24T22:15:21.512Z,12.68
2023-07-24T22:17:52.493Z,12.64
2023-07-24T22:20:40.543Z,12.64
2023-07-24T22:23:14.931Z,12.62
2023-07-24T22:25:57.723Z,12.55
2023-07-24T22:28:38.151Z,12.58
2023-07-24T22:31:10.233Z,12.48
2023-07-24T22:33:37.348Z,12.56
2023-07-24T22:36:04.547Z,12.51
2023-07-24T22:38:31.462Z,12.48
2023-07-24T22:41:02.440Z,12.41
2023-07-24T22:43:33.575Z,12.39
2023-07-24T22:46:07.684Z,12.39
2023-07-24T22:48:35.153Z,12.43
2023-07-24T22:51:15.523Z,12.48
2023-07-24T22:53:42.984Z,12.51
2023-07-24T22:56:10.193Z,12.63
2023-07-24T22:59:05.234Z,12.54
2023-07-24T23:01:33.761Z,12.63
2023-07-24T23:04:01.339Z,12.63
2023-07-24T23:06:28.242Z,12.77
2023-07-24T23:09:13.854Z,12.83
2023-07-24T23:11:44.012Z,12.83
2023-07-24T23:14:11.495Z,12.90
2023-07-24T23:16:53.315Z,12.86
2023-07-24T23:19:25.291Z,12.89
2023-07-24T23:21:57.520Z,12.75
2023-07-24T23:24:35.348Z,12.79
2023-07-24T23:27:02.677Z,12.81
2023-07-24T23:29:32.345Z,12.77
2023-07-24T23:32:05.434Z,12.88
2023-07-24T23:34:42.830Z,12.86
2023-07-24T23:37:09.896Z,12.94
2023-07-24T23:39:45.170Z,12.89
2023-07-24T23:42:17.620Z,12.99
2023-07-24T23:44:44.735Z,13.06
2023-07-24T23:47:14.163Z,13.03
2023-07-24T23:49:41.926Z,13.05
2023-07-24T23:52:20.972Z,13.00
2023-07-24T23:54:58.024Z,12.98
2023-07-24T23:57:29.469Z,12.98
2023-07-24T23:59:56.516Z,12.99
